METAR Data
IDs: Format: Raw Decoded Include TAF

Data at: 1542 UTC 12 Dec 2018

PATO 121538Z AUTO VRB06KT 3/4SM -SN BR VV011 M04/M05 A2902 RMK AO2 P0000 T10391050 TSNO $
PATO 121521Z AUTO 29005KT 1SM -SN BR VV011 M04/M05 A2901 RMK AO2 P0000 T10391050 TSNO $
PATO 121453Z AUTO 28005KT 1/2SM SN FZFG VV008 M04/M05 A2900 RMK AO2 SLP820 P0000 60000 T10391050 51011 TSNO $
PATO 121450Z AUTO 27004KT 1/2SM SN FZFG VV008 M04/M05 A2900 RMK AO2 P0000 TSNO $
PATO 121435Z AUTO 28005KT 3/4SM -SN BR VV013 M04/M05 A2900 RMK AO2 P0000 T10391050 TSNO $
PATO 121420Z AUTO 28006KT 1 3/4SM -SN BR OVC016 M04/M05 A2899 RMK AO2 P0000 T10391050 TSNO $
PATO 121401Z AUTO 28006KT 1SM -SN BR VV010 M04/M05 A2899 RMK AO2 P0000 T10391050 TSNO $
PATO 121353Z AUTO 28006KT 1/2SM SN FZFG VV007 M04/M05 A2899 RMK AO2 SLP817 P0000 T10391050 TSNO $
PATO 121337Z AUTO 28005KT 1/2SM SN FZFG VV008 M04/M05 A2898 RMK AO2 P0000 T10391050 TSNO $
PATO 121326Z AUTO 27006KT 3/4SM -SN BR VV012 M03/M05 A2898 RMK AO2 P0000 T10331050 TSNO $
PATO 121253Z AUTO 28006KT 1 1/4SM -SN BR OVC017 M03/M05 A2897 RMK AO2 SLP809 P0000 T10331050 TSNO $
PATO 121236Z AUTO 27006KT 1SM -SN BR VV014 M03/M05 A2896 RMK AO2 P0000 T10331050 TSNO $
PATO 121203Z AUTO 28006KT -SN OVC026 M03/M05 A2895 RMK AO2 P0000 T10281050 TSNO $
PATO 121153Z AUTO 27006KT -SN OVC032 M03/M05 A2894 RMK AO2 SNB34 SLP801 P0000 60000 T10281050 11011 21028 51020 TSNO $
PATO 121145Z AUTO 26007KT -SN OVC032 M03/M05 A2894 RMK AO2 SNB34 P0000 T10281050 TSNO $
PATO 121120Z AUTO 28006KT OVC026 M03/M05 A2894 RMK AO2 T10281050 TSNO $
PATO 121053Z AUTO 27007KT FEW024 OVC042 M03/M05 A2893 RMK AO2 SNE27 SLP797 P0000 T10281050 TSNO $
PATO 121018Z AUTO 28008G17KT 7SM -SN FEW027 OVC038 M03/M04 A2892 RMK AO2 P0000 T10281044 TSNO $
PATO 120953Z AUTO 27009G18KT 2 1/2SM -SN BR OVC021 M03/M04 A2891 RMK AO2 SLP789 P0000 T10281044 TSNO $
PATO 120912Z AUTO 26009G18KT 3SM -SN BR OVC017 M02/M04 A2889 RMK AO2 P0000 T10221039 TSNO $
PATO 120853Z AUTO 26009G19KT 1 3/4SM -SN BR OVC021 M02/M04 A2888 RMK AO2 SLP781 P0000 60000 T10221044 400111022 51014 TSNO $
PATO 120835Z AUTO 27010G19KT 3SM -SN BR SCT013 OVC029 M02/M04 A2888 RMK AO2 P0000 T10221044 TSNO $
PATO 120802Z AUTO 28009KT 5SM -SN BR FEW014 OVC037 M02/M04 A2887 RMK AO2 P0000 T10221039 TSNO $
PATO 120755Z AUTO 26008KT 2 1/2SM -SN BR FEW014 BKN030 OVC041 M02/M04 A2887 RMK AO2 P0000 T10221039 TSNO $
PATO 120753Z AUTO 27010KT 1 3/4SM -SN BR FEW014 BKN027 OVC041 M02/M04 A2886 RMK AO2 SLP775 P0000 T10221039 TSNO $
PATO 120743Z AUTO 26010G17KT 1SM -SN BR VV016 M02/M03 A2886 RMK AO2 P0000 T10221033 TSNO $
PATO 120741Z AUTO 26009KT 3/4SM -SN BR FEW009 OVC013 M02/M03 A2886 RMK AO2 P0000 T10221033 TSNO $
PATO 120730Z AUTO 27010G16KT 3/4SM -SN BR VV009 M02/M03 A2886 RMK AO2 P0000 T10221033 TSNO $
PATO 120712Z AUTO 27008KT 3/4SM -SN BR VV010 M02/M03 A2885 RMK AO2 P0000 T10171033 TSNO $
PATO 120705Z AUTO 27006KT 1SM -SN BR VV010 M02/M03 A2885 RMK AO2 P0000 T10171033 TSNO $
PATO 120653Z AUTO 28010G16KT 3/4SM -SN BR VV011 M02/M03 A2884 RMK AO2 SNB0559 SLP767 P0000 T10171033 TSNO $
PATO 120633Z AUTO 28009G19KT 250V310 1 1/4SM -SN BR OVC015 M02/M03 A2883 RMK AO2 SNB0559 P0000 T10171033 TSNO $
PATO 120625Z AUTO 28007KT 1 3/4SM -SN BR OVC014 M02/M03 A2883 RMK AO2 SNB0559 P0000 T10171028 TSNO $
PATO 120615Z AUTO 28010G16KT 2SM -SN BR SCT014 OVC020 M01/M03 A2883 RMK AO2 SNB0559 P0000 T10111028 TSNO $
PATO 120553Z AUTO 28008KT BKN018 OVC026 M01/M03 A2881 RMK AO2 SNE14 SLP758 P0000 60000 T10111028 10011 21022 53017 TSNO $
PATO 120453Z AUTO 28006KT 6SM -SN BR SCT009 OVC016 M01/M02 A2879 RMK AO2 SNB43 SLP751 P0000 T10111022 TSNO $
PATO 120353Z AUTO 29005KT 10SM OVC006 M02/M03 A2878 RMK AO2 SLP746 T10171028 TSNO $
PATO 120328Z AUTO 29004KT 10SM BKN005 BKN050 OVC070 M02/M03 A2877 RMK AO2 T10221033 TSNO $
PATO 120318Z AUTO 29004KT 10SM BKN004 BKN028 OVC070 M02/M03 A2877 RMK AO2 T10221033 TSNO $
PATO 120315Z AUTO 28005KT 10SM SCT004 BKN044 OVC070 M02/M03 A2877 RMK AO2 T10221033 TSNO $
PATO 120253Z AUTO 28003KT 9SM SCT020 BKN041 OVC050 M02/M03 A2876 RMK AO2 SNE53 SLP741 P0000 60000 T10171028 53003 TSNO $
PATO 120249Z AUTO 28003KT 9SM -SN FEW011 BKN038 OVC048 M02/M03 A2876 RMK AO2 P0000 TSNO $
PATO 120239Z AUTO 26004KT 7SM -SN FEW008 BKN023 OVC038 M02/M03 A2876 RMK AO2 P0000 T10171028 TSNO $
PATO 120231Z AUTO 28004KT 3SM -SN BR FEW008 BKN013 OVC033 M02/M03 A2876 RMK AO2 P0000 T10171028 TSNO $
PATO 120153Z AUTO 29004KT 1 1/4SM -SN BR OVC009 M02/M03 A2875 RMK AO2 SLP737 P0000 T10171028 TSNO $
PATO 120151Z AUTO 00000KT 1 1/4SM -SN BR OVC009 M02/M02 A2875 RMK AO2 P0000 TSNO $
PATO 120143Z AUTO 27003KT 3/4SM -SN BR VV009 M02/M02 A2875 RMK AO2 P0000 T10171022 TSNO $
PATO 120139Z AUTO 29003KT 1SM -SN BR BKN011 OVC015 M02/M02 A2875 RMK AO2 P0000 T10171022 TSNO $
PATO 120130Z AUTO 00000KT 2SM -SN BR BKN009 OVC015 M01/M02 A2875 RMK AO2 P0000 T10111022 TSNO $
PATO 120119Z AUTO 00000KT 3SM -SN BR BKN009 OVC021 M02/M02 A2875 RMK AO2 P0000 T10171022 TSNO $
PATO 120110Z AUTO 30004KT 6SM -SN BR BKN011 BKN020 OVC025 M01/M02 A2875 RMK AO2 P0000 T10111022 TSNO $
PATO 120053Z AUTO VRB03KT 6SM -SN BR FEW011 OVC026 M01/M02 A2874 RMK AO2 UPB2357E2359B38E47SNE2357B47 SLP733 P0000 T10061017 TSNO $
PATO 120019Z AUTO 11005KT 10SM FEW017 BKN031 01/M01 A2873 RMK AO2 UPB2357E2359SNE2357 P0000 T00111006 TSNO $
PATO 112353Z AUTO 00000KT 3SM -SN BR OVC022 00/M01 A2873 RMK AO2 SNE04B42 SLP731 P0000 60000 I6000 T00001011 10006 21022 51008 TSNO $
PATO 112253Z AUTO 12003KT 7SM -SN OVC025 01/M01 A2873 RMK AO2 SNB27 SLP730 P0000 T00061011 TSNO $
PATO 112229Z AUTO VRB03KT 9SM -SN FEW018 BKN029 OVC035 00/M02 A2872 RMK AO2 SNB27 P0000 T00001017 TSNO $
PATO 112153Z AUTO 00000KT 10SM OVC030 M01/M03 A2872 RMK AO2 SNB16E43 SLP726 P0000 T10111028 TSNO $
PATO 112135Z AUTO 00000KT 3SM -SN BR OVC026 M02/M03 A2872 RMK AO2 SNB16 P0000 T10171028 TSNO $
PATO 112121Z AUTO 00000KT 1 3/4SM -SN BR BKN026 OVC039 M02/M03 A2871 RMK AO2 SNB16 P0000 T10171028 TSNO $
PATO 112053Z AUTO 00000KT 10SM FEW022 BKN028 OVC038 M02/M03 A2871 RMK AO2 SNB04E13 SLP722 P0000 60000 I3000 T10221028 51020 TSNO $
PATO 112018Z AUTO 00000KT FEW005 BKN037 OVC060 M02/M03 A2870 RMK AO2 SNB04E13 P0000 T10171028 TSNO $
PATO 111953Z AUTO 31003KT 10SM SCT007 BKN025 OVC040 M02/M03 A2869 RMK AO2 SNB1857E06 SLP716 P0000 I1000 T10171028 TSNO $
PATO 111855Z AUTO 00000KT BKN009 BKN035 OVC120 M02/M03 A2867 RMK AO2 T10221028 TSNO $
PATO 111853Z AUTO 00000KT BKN011 BKN035 OVC120 M02/M03 A2867 RMK AO2 SNE29 SLP710 P0000 T10221033 TSNO $
PATO 111835Z AUTO 00000KT SCT013 SCT020 BKN120 M02/M03 A2866 RMK AO2 SNE29 P0000 T10221033 TSNO $
PATO 111826Z AUTO 00000KT -SN SCT005 BKN012 OVC120 M02/M03 A2866 RMK AO2 P0000 T10221033 TSNO $
PATO 111802Z AUTO 00000KT -SN BKN005 OVC021 M02/M03 A2865 RMK AO2 P0000 T10221028 TSNO $
PATO 111752Z AUTO 00000KT -SN SCT005 OVC019 M02/M03 A2865 RMK AO2 SLP702 P0000 60000 T10171028 11017 21022 51015 TSNO $
PATO 111751Z AUTO 00000KT -SN SCT005 OVC019 M02/M03 A2865 RMK AO2 P0000 TSNO $
PATO 111727Z AUTO 00000KT 1SM -SN BR VV014 M02/M03 A2864 RMK AO2 P0000 T10171028 TSNO
PATO 111653Z AUTO 00000KT 1SM -SN BR VV015 M02/M03 A2863 RMK AO2 SLP695 P0000 T10171028 TSNO
PATO 111650Z AUTO 00000KT 1SM -SN BR VV014 M02/M03 A2863 RMK AO2 P0000 TSNO
PATO 111636Z AUTO 00000KT 1 3/4SM -SN BR BKN017 OVC025 M02/M03 A2862 RMK AO2 P0000 T10221028 TSNO
PATO 111623Z AUTO 00000KT 5SM -SN BR FEW015 OVC025 M02/M03 A2862 RMK AO2 P0000 T10221028 TSNO
PATO 111615Z AUTO 00000KT 2 1/2SM -SN BR FEW015 OVC026 M02/M03 A2862 RMK AO2 P0000 T10221028 TSNO
PATO 111607Z AUTO 00000KT 1 3/4SM -SN BR BKN015 OVC027 M02/M03 A2861 RMK AO2 P0000 T10221028 TSNO
PATO 111553Z AUTO 00000KT 1 1/4SM -SN BR OVC014 M02/M03 A2861 RMK AO2 SLP687 P0000 T10221028 TSNO
PATO 111544Z AUTO 00000KT 1SM -SN BR VV014 M02/M03 A2860 RMK AO2 P0000 T10221028 TSNO
PATO 111526Z AUTO 00000KT 1 1/4SM -SN BR OVC019 M02/M03 A2860 RMK AO2 P0000 T10221028 TSNO $
PATO 111507Z AUTO 00000KT 2SM -SN BR OVC027 M02/M03 A2859 RMK AO2 P0000 T10221028 TSNO $
PATO 111453Z AUTO 00000KT 2 1/2SM -SN BR OVC035 M02/M03 A2859 RMK AO2 SLP680 P0000 60000 T10221033 53023 TSNO $
PATO 111417Z AUTO 00000KT 3SM -SN BR FEW026 OVC039 M02/M03 A2857 RMK AO2 P0000 T10221028 TSNO $
PATO 111408Z AUTO 00000KT 2 1/2SM -SN BR FEW025 OVC037 M02/M03 A2856 RMK AO2 P0000 T10221028 TSNO $
PATO 111353Z AUTO 27003KT 2SM -SN BR FEW018 OVC026 M02/M03 A2856 RMK AO2 SLP671 P0000 T10221033 TSNO $
PATO 111311Z AUTO 29004KT -SN OVC016 M02/M03 A2854 RMK AO2 P0000 T10221033 TSNO $
PATO 111253Z AUTO 28005KT 1 3/4SM -SN BR OVC015 M02/M03 A2853 RMK AO2 SLP663 P0000 T10221033 TSNO $
PATO 111211Z AUTO 29003KT 1SM -SN BR FEW006 OVC011 M02/M03 A2852 RMK AO2 P0000 T10221033 TSNO $
PATO 111201Z AUTO 29005KT 1SM -SN BR VV011 M02/M03 A2852 RMK AO2 P0000 T10221028 TSNO $
PATO 111153Z AUTO 29006KT 3/4SM -SN BR VV011 M02/M03 A2852 RMK AO2 SLP657 P0000 60000 70015 T10221033 10000 21022 53006 TSNO $
PATO 111145Z AUTO 29004KT 3/4SM -SN BR VV010 M02/M03 A2852 RMK AO2 P0000 T10221033 TSNO $
PATO 111120Z AUTO 30004KT SN OVC009 M02/M03 A2851 RMK AO2 P0000 T10221033 TSNO $
PATO 111108Z AUTO VRB04KT 1SM -SN BR SCT006 OVC010 M02/M03 A2851 RMK AO2 P0000 T10221028 TSNO $
PATO 111053Z AUTO 29005KT 3/4SM -SN BR VV009 M02/M03 A2850 RMK AO2 SLP653 P0000 T10171028 TSNO $
PATO 111026Z AUTO 28006KT 1 1/4SM -SN BR FEW006 OVC013 M02/M03 A2850 RMK AO2 P0000 T10171028 TSNO $
PATO 111015Z AUTO 29004KT SN SCT006 OVC011 M02/M03 A2849 RMK AO2 P0000 T10171028 TSNO $
PATO 110953Z AUTO 29005KT -SN BKN006 OVC017 M02/M03 A2849 RMK AO2 SLP649 P0000 T10171028 TSNO $
PATO 110943Z AUTO 29005KT 1 3/4SM -SN BR SCT007 OVC018 M02/M03 A2850 RMK AO2 P0000 T10171028 TSNO $
PATO 110925Z AUTO VRB05KT 1 3/4SM -SN BR SCT007 OVC013 M02/M02 A2850 RMK AO2 P0000 T10171022 TSNO $
PATO 110921Z AUTO 28007KT 2SM -SN BR BKN007 OVC013 M01/M02 A2850 RMK AO2 P0000 T10111022 TSNO $
PATO 110912Z AUTO 29006KT 2 1/2SM -SN BR OVC010 M01/M02 A2850 RMK AO2 CIG 006V013 P0000 T10111022 TSNO $
PATO 110853Z AUTO 29005KT 4SM -SN BR OVC008 M01/M02 A2850 RMK AO2 SLP652 P0000 60000 T10111022 400281011 56021 TSNO $
PATO 110834Z AUTO 28006KT 5SM -SN BR FEW004 OVC009 M01/M02 A2850 RMK AO2 P0000 T10111017 TSNO $
PATO 110753Z AUTO 29006KT 3SM -SN BR BKN004 OVC029 M01/M01 A2851 RMK AO2 SLP656 P0000 T10061011 TSNO $
PATO 110731Z AUTO 29006KT -SN BKN004 BKN008 OVC031 M01/M01 A2852 RMK AO2 P0000 T10061011 TSNO $
PATO 110726Z AUTO 28006KT -SN SCT004 SCT008 OVC033 M01/M01 A2852 RMK AO2 P0000 T10061011 TSNO $
PATO 110704Z AUTO 29006KT 3SM -SN BR BKN004 OVC034 M01/M01 A2853 RMK AO2 P0000 T10061011 TSNO $
PATO 110653Z AUTO 28005KT 2 1/2SM -SN BR BKN005 OVC027 M01/M01 A2854 RMK AO2 SNE0556B04 SLP664 P0000 T10061011 TSNO $
PATO 110611Z AUTO 30005KT 8SM -SN OVC003 00/M01 A2856 RMK AO2 SNE0556B04 P0000 T00001011 TSNO $
PATO 110603Z AUTO 30003KT 2SM BR OVC003 00/M01 A2856 RMK AO2 SNE0556 P0000 T00001006 TSNO $
PATO 110553Z AUTO 30004KT 3/4SM -SN BR VV003 00/M01 A2856 RMK AO2 SNB29 SLP673 P0000 60015 T00001006 10028 20000 56020 TSNO $
PATO 110550Z AUTO 31004KT 3/4SM -SN BR OVC003 00/M01 A2856 RMK AO2 SNB29 P0000 TSNO $
PATO 110528Z AUTO 30003KT 1 3/4SM BR BKN004 OVC037 00/M01 A2857 RMK AO2 T00001006 TSNO $
PATO 110521Z AUTO VRB03KT 2SM BR BKN004 OVC044 00/M01 A2857 RMK AO2 T00001006 TSNO $
PATO 110501Z AUTO 00000KT 8SM SCT002 OVC042 00/M01 A2859 RMK AO2 T00001006 TSNO $
PATO 110453Z AUTO 00000KT 10SM BKN002 OVC040 00/M01 A2860 RMK AO2 SLP684 T00001006 TSNO $
PATO 110441Z AUTO 00000KT 10SM BKN002 OVC038 00/M01 A2860 RMK AO2 T00001006 TSNO $
PATO 110420Z AUTO 00000KT 10SM FEW002 OVC040 00/M01 A2861 RMK AO2 T00001006 TSNO $
PATO 110353Z AUTO 27003KT 10SM OVC042 00/M01 A2862 RMK AO2 SLP692 P0003 T00001006 TSNO $